Time;durP1;ratioP1;P1;durP2;ratioP2;P2;SDS_P1;SDS_P2;PMS_P1;PMS_P2;Temp;Humidity;BMP_temperature;BMP_pressure;BME280_temperature;BME280_humidity;BME280_pressure;Samples;Min_cycle;Max_cycle;Signal;HPM_P1;HPM_P2
2022/05/03 00:02:26;;;;;;;;;;;7.50;99.90;;;;;;5092179;28;19924;-69
2022/05/03 00:04:52;;;;;;;;;;;7.50;99.90;;;;;;5084162;28;19928;-69
2022/05/03 00:07:23;;;;;;;;;;;9.10;99.90;;;;;;5081379;28;19947;-68
2022/05/03 00:10:04;;;;;;;;;;;7.50;99.90;;;;;;5091869;28;20269;-68
2022/05/03 00:12:41;;;;;;;;;;;7.50;99.90;;;;;;5092158;28;19928;-69
2022/05/03 00:15:07;;;;;;;;;;;7.50;99.90;;;;;;5076308;28;20011;-69
2022/05/03 00:17:33;;;;;;;;;;;7.50;99.90;;;;;;5079275;28;20316;-70
2022/05/03 00:19:59;;;;;;;;;;;7.50;99.90;;;;;;5092679;28;20305;-69
2022/05/03 00:22:25;;;;;;;;;;;7.40;99.90;;;;;;5093676;28;19924;-67
2022/05/03 00:24:54;;;;;;;;;;;7.40;99.90;;;;;;5089027;28;19932;-68
2022/05/03 00:27:24;;;;;;;;;;;7.70;99.90;;;;;;5082508;28;19924;-69
2022/05/03 00:29:51;;;;;;;;;;;7.40;99.90;;;;;;5106789;28;19931;-69
2022/05/03 00:32:16;;;;;;;;;;;7.30;99.90;;;;;;5090515;28;20000;-68
2022/05/03 00:34:43;;;;;;;;;;;7.30;99.90;;;;;;5087980;28;20053;-68
2022/05/03 00:37:08;;;;;;;;;;;7.30;99.90;;;;;;5082830;28;19929;-67
2022/05/03 00:39:34;;;;;;;;;;;7.30;99.90;;;;;;5091618;28;20287;-68
2022/05/03 00:42:14;;;;;;;;;;;7.30;99.90;;;;;;5091705;28;19977;-69
2022/05/03 00:44:55;;;;;;;;;;;7.20;99.90;;;;;;5081859;28;19924;-69
2022/05/03 00:47:40;;;;;;;;;;;7.20;99.90;;;;;;5086728;28;20455;-68
2022/05/03 00:50:08;;;;;;;;;;;7.20;99.90;;;;;;5089663;28;19925;-69
2022/05/03 00:52:36;;;;;;;;;;;7.10;99.90;;;;;;5085896;28;19924;-68
2022/05/03 00:55:19;;;;;;;;;;;7.10;99.90;;;;;;5091909;28;20017;-69
2022/05/03 00:57:50;;;;;;;;;;;7.10;99.90;;;;;;5091156;28;19928;-70
2022/05/03 01:00:15;;;;;;;;;;;7.10;99.90;;;;;;5087816;28;20185;-69
2022/05/03 01:02:59;;;;;;;;;;;7.00;99.90;;;;;;5087266;28;19924;-68
2022/05/03 01:05:26;;;;;;;;;;;7.00;99.90;;;;;;5090305;28;19995;-69
2022/05/03 01:08:07;;;;;;;;;;;7.00;99.90;;;;;;5097790;28;19924;-68
2022/05/03 01:10:46;;;;;;;;;;;7.00;99.90;;;;;;5087792;28;19924;-68
2022/05/03 01:13:29;;;;;;;;;;;6.90;99.90;;;;;;5087948;28;19955;-69
2022/05/03 01:16:01;;;;;;;;;;;6.90;99.90;;;;;;5081455;28;19935;-69
2022/05/03 01:18:34;;;;;;;;;;;6.90;99.90;;;;;;5097768;28;20357;-69
2022/05/03 01:21:00;;;;;;;;;;;6.90;99.90;;;;;;5080734;28;20385;-69
2022/05/03 01:23:44;;;;;;;;;;;6.90;99.90;;;;;;5091402;28;19931;-69
2022/05/03 01:26:24;;;;;;;;;;;6.90;99.90;;;;;;5086241;28;19968;-69
2022/05/03 01:29:04;;;;;;;;;;;6.90;99.90;;;;;;5089399;28;19936;-69
2022/05/03 01:31:30;;;;;;;;;;;6.80;99.90;;;;;;5087961;28;19924;-69
2022/05/03 01:34:02;;;;;;;;;;;7.40;99.90;;;;;;5089782;28;19924;-69
2022/05/03 01:36:31;;;;;;;;;;;6.80;99.90;;;;;;5088988;28;20357;-69
2022/05/03 01:38:56;;;;;;;;;;;6.80;99.90;;;;;;5085877;28;19924;-70
2022/05/03 01:41:42;;;;;;;;;;;6.70;99.90;;;;;;5104164;28;19997;-69
2022/05/03 01:44:26;;;;;;;;;;;6.70;99.90;;;;;;5088544;28;19991;-68
2022/05/03 01:46:57;;;;;;;;;;;6.70;99.90;;;;;;5090061;28;19981;-69
2022/05/03 01:52:22;;;;;;;;;;;6.70;99.90;;;;;;5089551;28;19924;-67
2022/05/03 01:55:06;;;;;;;;;;;6.70;99.90;;;;;;5088834;28;19924;-68
2022/05/03 01:57:47;;;;;;;;;;;6.70;99.90;;;;;;5089430;28;19924;-69
2022/05/03 02:00:13;;;;;;;;;;;6.70;99.90;;;;;;5077705;28;20026;-68
2022/05/03 02:02:57;;;;;;;;;;;6.70;99.90;;;;;;5084474;28;19930;-69
2022/05/03 02:05:41;;;;;;;;;;;6.60;99.90;;;;;;5090492;28;19924;-69
2022/05/03 02:08:11;;;;;;;;;;;6.70;99.90;;;;;;5083845;28;19924;-69
2022/05/03 02:10:55;;;;;;;;;;;6.60;99.90;;;;;;5105304;28;19924;-69
2022/05/03 02:14:43;;;;;;;;;;;6.60;99.90;;;;;;5106326;27;19950;-68
2022/05/03 02:16:27;;;;;;;;;;;6.60;99.90;;;;;;5089534;28;19932;-70
2022/05/03 02:19:06;;;;;;;;;;;6.60;99.90;;;;;;5091896;28;19928;-69
2022/05/03 02:21:41;;;;;;;;;;;6.60;99.90;;;;;;5093268;28;20018;-69
2022/05/03 02:24:13;;;;;;;;;;;6.60;99.90;;;;;;5079942;28;19924;-68
2022/05/03 02:26:49;;;;;;;;;;;6.50;99.90;;;;;;5094681;28;19924;-68
2022/05/03 02:29:18;;;;;;;;;;;6.50;99.90;;;;;;5094552;28;19928;-68
2022/05/03 02:31:51;;;;;;;;;;;6.50;99.90;;;;;;5093195;28;19931;-69
2022/05/03 02:34:16;;;;;;;;;;;6.60;99.90;;;;;;5112321;28;19931;-68
2022/05/03 02:36:47;;;;;;;;;;;6.60;99.90;;;;;;5093053;28;19928;-68
2022/05/03 02:39:14;;;;;;;;;;;6.70;99.90;;;;;;5106271;27;20435;-70
2022/05/03 02:41:39;;;;;;;;;;;6.80;99.90;;;;;;5091226;28;20281;-69
2022/05/03 02:44:05;;;;;;;;;;;6.90;99.90;;;;;;5093628;28;19932;-69
2022/05/03 02:46:50;;;;;;;;;;;6.90;99.90;;;;;;5091963;28;19931;-68
2022/05/03 02:49:20;;;;;;;;;;;7.00;99.90;;;;;;5092307;28;20040;-68
2022/05/03 02:51:58;;;;;;;;;;;7.10;99.90;;;;;;5093378;28;19924;-68
2022/05/03 02:54:43;;;;;;;;;;;7.20;99.90;;;;;;5092724;28;19967;-68
2022/05/03 02:57:16;;;;;;;;;;;7.20;99.90;;;;;;5089231;28;19928;-70
2022/05/03 03:02:36;;;;;;;;;;;7.40;99.90;;;;;;5087185;28;20019;-70
2022/05/03 03:05:06;;;;;;;;;;;7.40;99.90;;;;;;5080561;28;19924;-69
2022/05/03 03:07:56;;;;;;;;;;;7.50;99.90;;;;;;5085183;28;19928;-70
2022/05/03 03:10:25;;;;;;;;;;;7.60;99.90;;;;;;5088654;28;20071;-69
2022/05/03 03:12:50;;;;;;;;;;;8.80;99.90;;;;;;5076628;28;19970;-68
2022/05/03 03:15:17;;;;;;;;;;;7.80;99.90;;;;;;5089873;28;19928;-68
2022/05/03 03:17:44;;;;;;;;;;;7.70;99.90;;;;;;5093300;28;19993;-69
2022/05/03 03:20:10;;;;;;;;;;;7.80;99.90;;;;;;5079303;28;19933;-69
2022/05/03 03:22:37;;;;;;;;;;;7.70;99.90;;;;;;5090267;28;20012;-69
2022/05/03 03:25:04;;;;;;;;;;;7.70;99.90;;;;;;5093188;28;19946;-68
2022/05/03 03:27:31;;;;;;;;;;;7.70;99.90;;;;;;5091921;28;19924;-70
2022/05/03 03:29:57;;;;;;;;;;;9.40;99.90;;;;;;5090794;28;20011;-68
2022/05/03 03:32:27;;;;;;;;;;;7.80;99.90;;;;;;5095236;28;19924;-69
2022/05/03 03:34:54;;;;;;;;;;;7.80;99.90;;;;;;5091866;28;19924;-69
2022/05/03 03:37:22;;;;;;;;;;;7.90;99.90;;;;;;5070438;28;19931;-69
2022/05/03 03:39:48;;;;;;;;;;;9.10;99.90;;;;;;5090230;28;19924;-68
2022/05/03 03:42:13;;;;;;;;;;;7.90;99.90;;;;;;5089637;28;19931;-69
2022/05/03 03:44:39;;;;;;;;;;;8.00;99.90;;;;;;5092677;28;20287;-69
2022/05/03 03:47:05;;;;;;;;;;;8.00;99.90;;;;;;5087360;28;19925;-69
2022/05/03 03:49:31;;;;;;;;;;;8.10;99.90;;;;;;5107204;28;19929;-70
2022/05/03 03:52:00;;;;;;;;;;;8.10;99.90;;;;;;5087321;28;20484;-68
2022/05/03 03:54:26;;;;;;;;;;;8.10;99.90;;;;;;5092728;28;19928;-69
2022/05/03 03:56:53;;;;;;;;;;;8.20;99.90;;;;;;5092458;28;19970;-68
2022/05/03 03:59:19;;;;;;;;;;;8.50;99.90;;;;;;5086706;28;20336;-69
2022/05/03 04:01:50;;;;;;;;;;;8.20;99.90;;;;;;5085789;28;19931;-69
2022/05/03 04:04:21;;;;;;;;;;;8.30;99.90;;;;;;5088102;28;20072;-69
2022/05/03 04:06:46;;;;;;;;;;;8.30;99.90;;;;;;5091706;28;20049;-69
2022/05/03 04:09:12;;;;;;;;;;;8.50;99.90;;;;;;5092401;28;20386;-67
2022/05/03 04:11:42;;;;;;;;;;;8.40;99.90;;;;;;5090567;28;20038;-68
2022/05/03 04:14:08;;;;;;;;;;;8.40;99.90;;;;;;5093620;28;19924;-70
2022/05/03 04:16:35;;;;;;;;;;;8.40;99.90;;;;;;5087398;28;19931;-68
2022/05/03 04:19:01;;;;;;;;;;;8.40;99.90;;;;;;5076029;28;19931;-69
2022/05/03 04:21:27;;;;;;;;;;;8.40;99.90;;;;;;5087838;28;19932;-68
2022/05/03 04:23:52;;;;;;;;;;;8.40;99.90;;;;;;5087697;28;20508;-68
2022/05/03 04:26:18;;;;;;;;;;;8.50;99.90;;;;;;5084450;28;19985;-68
2022/05/03 04:28:44;;;;;;;;;;;8.50;99.90;;;;;;5090514;28;19924;-67
2022/05/03 04:31:09;;;;;;;;;;;8.50;99.90;;;;;;5090681;28;20339;-68
2022/05/03 04:33:35;;;;;;;;;;;8.50;99.90;;;;;;5090090;28;19985;-69
2022/05/03 04:36:01;;;;;;;;;;;8.50;99.90;;;;;;5087818;28;20392;-69
2022/05/03 04:38:26;;;;;;;;;;;8.50;99.90;;;;;;5081481;28;19928;-69
2022/05/03 04:40:59;;;;;;;;;;;8.60;99.90;;;;;;5090873;28;19924;-68
2022/05/03 04:43:24;;;;;;;;;;;8.60;99.90;;;;;;5090640;28;19970;-68
2022/05/03 04:45:51;;;;;;;;;;;8.60;99.90;;;;;;5081107;28;19928;-68
2022/05/03 04:48:16;;;;;;;;;;;8.60;99.90;;;;;;5095202;28;19924;-68
2022/05/03 04:50:42;;;;;;;;;;;8.60;99.90;;;;;;5091684;28;20038;-69
2022/05/03 04:53:08;;;;;;;;;;;8.90;99.90;;;;;;5086531;28;19989;-68
2022/05/03 04:55:37;;;;;;;;;;;9.70;99.90;;;;;;5089310;28;20297;-68
2022/05/03 04:58:02;;;;;;;;;;;8.70;99.90;;;;;;5085226;28;19932;-69
2022/05/03 05:00:28;;;;;;;;;;;9.20;99.90;;;;;;5104511;28;20058;-68
2022/05/03 05:02:53;;;;;;;;;;;8.80;99.90;;;;;;5074274;28;20065;-68
2022/05/03 05:05:19;;;;;;;;;;;8.80;99.90;;;;;;5106629;28;20328;-68
2022/05/03 05:07:45;;;;;;;;;;;8.80;99.90;;;;;;5082058;28;19951;-68
2022/05/03 05:10:26;;;;;;;;;;;8.80;99.90;;;;;;5084418;28;19924;-67
2022/05/03 05:12:53;;;;;;;;;;;8.80;99.90;;;;;;5085437;28;19939;-68
2022/05/03 05:15:19;;;;;;;;;;;8.80;99.90;;;;;;5091338;28;19924;-69
2022/05/03 05:17:44;;;;;;;;;;;8.90;99.90;;;;;;5056219;28;19939;-69
2022/05/03 05:20:10;;;;;;;;;;;9.80;99.90;;;;;;5085073;28;19928;-68
2022/05/03 05:22:36;;;;;;;;;;;8.90;99.90;;;;;;5089337;28;19924;-68
2022/05/03 05:25:02;;;;;;;;;;;8.90;99.90;;;;;;5083522;28;20362;-68
2022/05/03 05:27:27;;;;;;;;;;;8.90;99.90;;;;;;5079047;28;20003;-69
2022/05/03 05:29:53;;;;;;;;;;;8.90;99.90;;;;;;5081042;28;19925;-68
2022/05/03 05:32:21;;;;;;;;;;;8.90;99.90;;;;;;5069792;28;19935;-68
2022/05/03 05:34:46;;;;;;;;;;;9.10;99.90;;;;;;5090558;28;19928;-68
2022/05/03 05:37:12;;;;;;;;;;;9.20;99.90;;;;;;5091944;28;19924;-68
2022/05/03 05:39:37;;;;;;;;;;;9.00;99.90;;;;;;5081691;28;19931;-68
2022/05/03 05:42:03;;;;;;;;;;;9.00;99.90;;;;;;5092040;28;20397;-68
2022/05/03 05:44:28;;;;;;;;;;;9.00;99.90;;;;;;5081679;28;20319;-69
2022/05/03 05:46:55;;;;;;;;;;;9.00;99.90;;;;;;5108095;28;19939;-67
2022/05/03 05:49:20;;;;;;;;;;;9.00;99.90;;;;;;5092106;28;19967;-69
2022/05/03 05:51:46;;;;;;;;;;;9.30;99.90;;;;;;5091636;28;20350;-68
2022/05/03 05:54:11;;;;;;;;;;;9.00;99.90;;;;;;5088455;28;19931;-69
2022/05/03 05:56:38;;;;;;;;;;;9.00;99.90;;;;;;5087807;28;19924;-68
2022/05/03 05:59:03;;;;;;;;;;;9.50;99.90;;;;;;5081552;28;19977;-69
2022/05/03 06:01:35;;;;;;;;;;;9.20;99.90;;;;;;5087930;28;20346;-68
2022/05/03 06:04:01;;;;;;;;;;;9.20;99.90;;;;;;5088056;28;19932;-69
2022/05/03 06:06:26;;;;;;;;;;;9.70;99.90;;;;;;5074990;28;19925;-69
2022/05/03 06:08:52;;;;;;;;;;;9.30;99.90;;;;;;5086496;28;20416;-68
2022/05/03 06:11:17;;;;;;;;;;;9.50;99.90;;;;;;5078134;28;20386;-68
2022/05/03 06:13:43;;;;;;;;;;;9.40;99.90;;;;;;5083583;28;19924;-68
2022/05/03 06:16:09;;;;;;;;;;;9.50;99.90;;;;;;5083843;28;19924;-68
2022/05/03 06:18:35;;;;;;;;;;;9.40;99.90;;;;;;5090621;28;19970;-68
2022/05/03 06:21:03;;;;;;;;;;;9.40;99.90;;;;;;5092103;28;19924;-68
2022/05/03 06:23:31;;;;;;;;;;;9.40;99.90;;;;;;5092007;28;19954;-67
2022/05/03 06:25:58;;;;;;;;;;;9.30;99.90;;;;;;5091560;28;20476;-69
2022/05/03 06:28:24;;;;;;;;;;;9.30;99.90;;;;;;5088647;28;19924;-68
2022/05/03 06:30:49;;;;;;;;;;;9.40;99.90;;;;;;5081195;28;19939;-69
2022/05/03 06:33:15;;;;;;;;;;;9.40;99.90;;;;;;5088775;28;20010;-69
2022/05/03 06:35:41;;;;;;;;;;;9.60;99.90;;;;;;5086493;28;20011;-68
2022/05/03 06:38:06;;;;;;;;;;;9.20;99.90;;;;;;5081717;28;19924;-68
2022/05/03 06:40:32;;;;;;;;;;;9.10;99.90;;;;;;5082866;28;19925;-68
2022/05/03 06:42:57;;;;;;;;;;;9.20;99.90;;;;;;5080939;28;19931;-67
2022/05/03 06:45:23;;;;;;;;;;;9.30;99.90;;;;;;5091742;28;20433;-68
2022/05/03 06:47:49;;;;;;;;;;;9.20;99.90;;;;;;5088387;28;19978;-67
2022/05/03 06:50:15;;;;;;;;;;;9.10;99.90;;;;;;5108127;28;19924;-69
2022/05/03 06:52:41;;;;;;;;;;;9.10;99.90;;;;;;5092326;28;19946;-68
2022/05/03 06:55:06;;;;;;;;;;;9.00;99.90;;;;;;5090633;28;20458;-68
2022/05/03 06:57:32;;;;;;;;;;;8.90;99.90;;;;;;5081869;28;19924;-69
2022/05/03 07:00:02;;;;;;;;;;;8.90;99.90;;;;;;5089983;28;20030;-68
2022/05/03 07:02:29;;;;;;;;;;;8.90;99.90;;;;;;5092107;28;19924;-69
2022/05/03 07:04:55;;;;;;;;;;;9.00;99.90;;;;;;5085872;28;19924;-70
2022/05/03 07:07:20;;;;;;;;;;;8.90;99.90;;;;;;5087568;28;19924;-70
2022/05/03 07:09:46;;;;;;;;;;;9.00;99.90;;;;;;5091216;28;20297;-68
2022/05/03 07:12:11;;;;;;;;;;;8.90;99.90;;;;;;5091290;28;20016;-69
2022/05/03 07:14:37;;;;;;;;;;;9.10;99.90;;;;;;5085058;28;19924;-68
2022/05/03 07:17:03;;;;;;;;;;;9.00;99.90;;;;;;5082198;28;20862;-68
2022/05/03 07:24:57;;;;;;;;;;;9.00;99.90;;;;;;5093599;28;20389;-68
2022/05/03 07:27:22;;;;;;;;;;;9.10;99.90;;;;;;5089770;28;20010;-69
2022/05/03 07:29:48;;;;;;;;;;;9.10;99.90;;;;;;5092195;28;20058;-68
2022/05/03 07:32:13;;;;;;;;;;;9.20;99.90;;;;;;5089625;28;19924;-69
2022/05/03 07:34:42;;;;;;;;;;;9.30;99.90;;;;;;5091998;28;19928;-68
2022/05/03 07:37:08;;;;;;;;;;;9.30;99.90;;;;;;5091954;28;20286;-69
2022/05/03 07:39:34;;;;;;;;;;;9.30;99.90;;;;;;5092821;28;19927;-69
2022/05/03 07:42:00;;;;;;;;;;;9.30;99.90;;;;;;5088879;28;20324;-68
2022/05/03 07:44:25;;;;;;;;;;;9.40;99.90;;;;;;5085346;28;20294;-69
2022/05/03 07:46:51;;;;;;;;;;;9.40;99.90;;;;;;5089146;28;19956;-69
2022/05/03 07:49:16;;;;;;;;;;;9.60;99.90;;;;;;5083678;28;20006;-69
2022/05/03 07:51:42;;;;;;;;;;;10.80;99.90;;;;;;5090723;28;20370;-68
2022/05/03 07:54:08;;;;;;;;;;;9.50;99.90;;;;;;5087094;28;19924;-69
2022/05/03 07:56:34;;;;;;;;;;;9.60;99.90;;;;;;5085109;28;19935;-68
2022/05/03 07:58:59;;;;;;;;;;;9.60;99.90;;;;;;5090228;28;20010;-67
2022/05/03 08:01:25;;;;;;;;;;;9.70;99.90;;;;;;5094412;28;19932;-68
2022/05/03 08:03:50;;;;;;;;;;;9.80;99.90;;;;;;5092319;28;19931;-68
2022/05/03 08:06:16;;;;;;;;;;;10.70;99.90;;;;;;5077561;28;20036;-68
2022/05/03 08:08:41;;;;;;;;;;;10.00;99.90;;;;;;5092947;28;20297;-68
2022/05/03 08:11:07;;;;;;;;;;;10.30;99.90;;;;;;5090176;28;20063;-69
2022/05/03 08:13:32;;;;;;;;;;;10.10;99.90;;;;;;5074480;28;19932;-69
2022/05/03 08:15:58;;;;;;;;;;;10.30;99.90;;;;;;5090495;28;19931;-68
2022/05/03 08:18:23;;;;;;;;;;;10.60;99.90;;;;;;5087640;28;19924;-67
2022/05/03 08:20:49;;;;;;;;;;;10.10;99.90;;;;;;5077565;28;19994;-69
2022/05/03 08:23:15;;;;;;;;;;;10.10;99.90;;;;;;5092380;28;20273;-68
2022/05/03 08:25:40;;;;;;;;;;;10.20;99.90;;;;;;5083239;28;20352;-68
2022/05/03 08:28:06;;;;;;;;;;;10.10;99.90;;;;;;5090760;28;19944;-68
2022/05/03 08:30:32;;;;;;;;;;;10.10;99.90;;;;;;5077776;28;20324;-67
2022/05/03 08:32:57;;;;;;;;;;;10.10;99.90;;;;;;5091466;28;20301;-68
2022/05/03 08:35:24;;;;;;;;;;;10.20;99.90;;;;;;5094336;28;19947;-68
2022/05/03 08:43:18;;;;;;;;;;;10.30;99.90;;;;;;5092174;28;19924;-68
2022/05/03 08:45:49;;;;;;;;;;;10.30;99.90;;;;;;5078370;28;20423;-67
2022/05/03 08:48:15;;;;;;;;;;;10.30;99.90;;;;;;5089597;28;20424;-68
2022/05/03 08:50:41;;;;;;;;;;;10.40;99.90;;;;;;5084454;28;20011;-68
2022/05/03 08:53:07;;;;;;;;;;;10.40;99.90;;;;;;5092849;28;19928;-67
2022/05/03 08:55:33;;;;;;;;;;;10.50;99.90;;;;;;5080730;28;19950;-69
2022/05/03 08:57:59;;;;;;;;;;;10.50;99.90;;;;;;5081326;28;20011;-68
2022/05/03 09:00:25;;;;;;;;;;;10.60;99.90;;;;;;5084933;28;19942;-68
2022/05/03 09:02:53;;;;;;;;;;;10.70;99.90;;;;;;5093190;28;19958;-68
2022/05/03 09:05:19;;;;;;;;;;;10.60;99.90;;;;;;5092509;28;19924;-69
2022/05/03 09:07:52;;;;;;;;;;;10.70;99.90;;;;;;5091421;28;19924;-68
2022/05/03 09:10:19;;;;;;;;;;;10.60;99.90;;;;;;5089000;28;19924;-68
2022/05/03 09:12:45;;;;;;;;;;;10.60;99.90;;;;;;5094712;28;19936;-67
2022/05/03 09:15:14;;;;;;;;;;;10.90;99.90;;;;;;5088088;28;19931;-67
2022/05/03 09:17:44;;;;;;;;;;;11.50;99.90;;;;;;5093298;28;19924;-68
2022/05/03 09:25:53;;;;;;;;;;;11.20;99.90;;;;;;5092978;28;19967;-67
2022/05/03 09:28:19;;;;;;;;;;;11.30;99.90;;;;;;5087925;28;19971;-67
2022/05/03 09:30:46;;;;;;;;;;;11.40;99.90;;;;;;5080886;28;19924;-68
2022/05/03 09:33:15;;;;;;;;;;;11.50;99.90;;;;;;5083730;28;20374;-68
2022/05/03 09:35:41;;;;;;;;;;;11.50;99.90;;;;;;5102518;28;19963;-67
2022/05/03 09:38:09;;;;;;;;;;;11.60;99.90;;;;;;5087509;28;20406;-68
2022/05/03 09:40:36;;;;;;;;;;;11.60;99.90;;;;;;5079583;28;19928;-68
2022/05/03 09:43:01;;;;;;;;;;;11.70;99.90;;;;;;5104148;28;20362;-69
2022/05/03 09:45:28;;;;;;;;;;;11.60;99.90;;;;;;5083626;28;19979;-68
2022/05/03 09:47:56;;;;;;;;;;;11.80;99.90;;;;;;5076010;28;19959;-68
2022/05/03 09:50:42;;;;;;;;;;;11.90;99.90;;;;;;5088809;28;19924;-68
2022/05/03 09:53:08;;;;;;;;;;;11.90;99.90;;;;;;5088578;28;19931;-68
2022/05/03 09:55:36;;;;;;;;;;;12.00;99.90;;;;;;5086349;28;19924;-68
2022/05/03 09:58:03;;;;;;;;;;;12.50;99.90;;;;;;5078859;28;19926;-67
2022/05/03 10:00:31;;;;;;;;;;;12.30;99.90;;;;;;5100506;28;19932;-68
2022/05/03 10:02:58;;;;;;;;;;;12.50;99.90;;;;;;5091157;28;19928;-69
2022/05/03 10:05:24;;;;;;;;;;;12.50;99.90;;;;;;5084360;28;19931;-68
2022/05/03 10:07:50;;;;;;;;;;;12.70;99.40;;;;;;5108739;28;19939;-68
2022/05/03 10:10:16;;;;;;;;;;;12.70;98.30;;;;;;5107167;28;20002;-68
2022/05/03 10:12:42;;;;;;;;;;;12.70;98.00;;;;;;5090774;28;19935;-67
2022/05/03 10:15:08;;;;;;;;;;;12.70;97.90;;;;;;5091341;28;20015;-67
2022/05/03 10:20:46;;;;;;;;;;;12.50;99.00;;;;;;5084741;28;20326;-67
2022/05/03 10:23:21;;;;;;;;;;;12.70;98.50;;;;;;5075676;28;19928;-67
2022/05/03 10:25:47;;;;;;;;;;;12.90;97.90;;;;;;5074013;28;20365;-66
2022/05/03 10:28:13;;;;;;;;;;;12.90;98.00;;;;;;5087268;28;19924;-68
2022/05/03 10:30:39;;;;;;;;;;;13.10;98.30;;;;;;5085570;28;19924;-67
2022/05/03 10:33:20;;;;;;;;;;;12.80;98.20;;;;;;5090815;28;19924;-68
2022/05/03 10:35:49;;;;;;;;;;;12.90;97.50;;;;;;5086432;28;19950;-68
2022/05/03 10:38:15;;;;;;;;;;;13.00;96.70;;;;;;5077674;28;19966;-67
2022/05/03 10:40:44;;;;;;;;;;;13.20;97.10;;;;;;5095100;28;19928;-67
2022/05/03 10:43:11;;;;;;;;;;;12.70;97.20;;;;;;5095846;28;20014;-67
2022/05/03 10:45:56;;;;;;;;;;;12.60;98.30;;;;;;5092120;28;20277;-67
2022/05/03 10:48:25;;;;;;;;;;;12.80;97.20;;;;;;5076705;28;20016;-68
2022/05/03 10:50:52;;;;;;;;;;;12.90;96.80;;;;;;5093655;28;19924;-67
2022/05/03 10:53:19;;;;;;;;;;;13.00;97.40;;;;;;5096173;28;19924;-68
2022/05/03 10:56:02;;;;;;;;;;;13.10;95.50;;;;;;5090997;28;20381;-69
2022/05/03 10:58:30;;;;;;;;;;;13.00;96.10;;;;;;5083619;28;20297;-69
2022/05/03 11:01:11;;;;;;;;;;;13.00;96.10;;;;;;5083713;28;20441;-67
2022/05/03 11:03:38;;;;;;;;;;;13.20;96.60;;;;;;5094466;28;19962;-68
2022/05/03 11:06:15;;;;;;;;;;;13.40;94.80;;;;;;5094899;28;19925;-67
2022/05/03 11:09:02;;;;;;;;;;;13.20;94.20;;;;;;5095940;28;20345;-67
2022/05/03 11:11:43;;;;;;;;;;;13.20;94.30;;;;;;5095940;28;19931;-68
2022/05/03 11:14:21;;;;;;;;;;;12.90;94.90;;;;;;5095915;28;19924;-68
2022/05/03 11:16:48;;;;;;;;;;;13.00;94.90;;;;;;5075854;28;20007;-67
2022/05/03 11:19:15;;;;;;;;;;;13.10;94.80;;;;;;5075520;28;20384;-68
2022/05/03 11:21:41;;;;;;;;;;;13.30;94.10;;;;;;5093285;28;19924;-67
2022/05/03 11:24:16;;;;;;;;;;;13.30;94.60;;;;;;5081085;28;20390;-67
2022/05/03 11:26:42;;;;;;;;;;;13.30;94.20;;;;;;5075599;28;19928;-67
2022/05/03 11:29:07;;;;;;;;;;;13.40;94.20;;;;;;5093990;28;19924;-69
2022/05/03 11:31:33;;;;;;;;;;;13.30;94.20;;;;;;5084857;28;19950;-68
2022/05/03 11:33:59;;;;;;;;;;;13.40;94.30;;;;;;5073862;28;19924;-67
2022/05/03 11:36:28;;;;;;;;;;;13.40;93.80;;;;;;5089794;28;19935;-67
2022/05/03 11:38:55;;;;;;;;;;;13.60;94.40;;;;;;5093825;28;19924;-67
2022/05/03 11:41:21;;;;;;;;;;;13.80;93.60;;;;;;5094358;28;19924;-67
2022/05/03 11:43:49;;;;;;;;;;;14.00;93.20;;;;;;5086561;28;20024;-66
2022/05/03 11:46:16;;;;;;;;;;;14.30;92.00;;;;;;5082607;28;20017;-68
2022/05/03 11:48:42;;;;;;;;;;;14.50;91.50;;;;;;5092792;28;20519;-68
2022/05/03 11:56:42;;;;;;;;;;;14.40;90.70;;;;;;5082843;28;20024;-67
2022/05/03 11:59:11;;;;;;;;;;;14.40;91.80;;;;;;5084840;28;20323;-68
2022/05/03 12:01:37;;;;;;;;;;;14.60;90.40;;;;;;5077228;28;19925;-68
2022/05/03 12:04:04;;;;;;;;;;;14.40;90.90;;;;;;5093489;28;20437;-66
2022/05/03 12:06:43;;;;;;;;;;;14.40;90.10;;;;;;5076653;28;20308;-67
2022/05/03 12:09:16;;;;;;;;;;;14.20;90.70;;;;;;5092507;28;19970;-66
2022/05/03 12:14:50;;;;;;;;;;;13.90;90.00;;;;;;5083436;28;19977;-68
2022/05/03 12:17:18;;;;;;;;;;;13.90;90.60;;;;;;5092724;28;19924;-68
2022/05/03 12:19:43;;;;;;;;;;;14.10;90.20;;;;;;5088346;28;20011;-67
2022/05/03 12:22:14;;;;;;;;;;;14.20;91.30;;;;;;5093628;28;20014;-66
2022/05/03 12:24:41;;;;;;;;;;;14.30;90.30;;;;;;5079401;28;19928;-67
2022/05/03 12:27:10;;;;;;;;;;;14.80;88.10;;;;;;5088673;28;20392;-67
2022/05/03 12:29:41;;;;;;;;;;;14.70;89.10;;;;;;5089594;28;19935;-67
2022/05/03 12:32:16;;;;;;;;;;;14.50;90.30;;;;;;5090722;28;19935;-67
2022/05/03 12:34:58;;;;;;;;;;;14.70;90.50;;;;;;5072040;28;19932;-67
2022/05/03 12:37:24;;;;;;;;;;;15.10;89.40;;;;;;5083134;28;19928;-67
2022/05/03 12:39:49;;;;;;;;;;;15.40;88.80;;;;;;5097693;28;20485;-67
2022/05/03 12:42:15;;;;;;;;;;;15.40;88.50;;;;;;5073591;28;20019;-67
2022/05/03 12:44:52;;;;;;;;;;;15.50;84.80;;;;;;5087847;28;20437;-68
2022/05/03 12:47:18;;;;;;;;;;;15.70;84.50;;;;;;5088311;28;19939;-68
2022/05/03 12:49:44;;;;;;;;;;;15.80;87.80;;;;;;5090599;28;19955;-67
2022/05/03 12:52:09;;;;;;;;;;;16.30;87.70;;;;;;5074387;28;19928;-67
2022/05/03 12:54:39;;;;;;;;;;;16.40;84.00;;;;;;5082421;28;20014;-67
2022/05/03 12:59:49;;;;;;;;;;;15.90;81.00;;;;;;5084838;28;19935;-67
2022/05/03 13:02:14;;;;;;;;;;;15.30;84.20;;;;;;5079203;28;19928;-66
2022/05/03 13:04:40;;;;;;;;;;;15.30;84.00;;;;;;5074109;28;19924;-68
2022/05/03 13:07:06;;;;;;;;;;;15.70;82.60;;;;;;5090767;28;20618;-67
2022/05/03 13:09:31;;;;;;;;;;;16.00;82.80;;;;;;5090795;28;19963;-68
2022/05/03 13:11:58;;;;;;;;;;;15.80;79.20;;;;;;5074319;28;20309;-67
2022/05/03 13:14:26;;;;;;;;;;;15.60;80.20;;;;;;5086538;28;20443;-68
2022/05/03 13:16:52;;;;;;;;;;;15.90;83.30;;;;;;5088220;28;19935;-67
2022/05/03 13:19:18;;;;;;;;;;;16.40;79.70;;;;;;5102649;28;19993;-68
2022/05/03 13:21:44;;;;;;;;;;;17.00;80.10;;;;;;5076195;28;19928;-69
2022/05/03 13:24:10;;;;;;;;;;;17.60;74.10;;;;;;5076800;28;19928;-69
2022/05/03 13:26:39;;;;;;;;;;;17.60;76.00;;;;;;5087857;28;19946;-68
2022/05/03 13:29:07;;;;;;;;;;;18.20;71.00;;;;;;5087064;28;19928;-69
2022/05/03 13:31:33;;;;;;;;;;;18.20;69.70;;;;;;5086581;28;19954;-69
2022/05/03 13:33:59;;;;;;;;;;;17.70;69.90;;;;;;5086601;28;19924;-69
2022/05/03 13:41:53;;;;;;;;;;;18.00;72.30;;;;;;5081275;28;19931;-68
2022/05/03 13:44:18;;;;;;;;;;;18.40;71.10;;;;;;5089865;28;19925;-68
2022/05/03 13:46:44;;;;;;;;;;;18.80;68.10;;;;;;5083019;28;19924;-68
2022/05/03 13:49:10;;;;;;;;;;;19.20;68.50;;;;;;5090589;28;20016;-69
2022/05/03 13:51:36;;;;;;;;;;;19.60;64.20;;;;;;5083376;28;20282;-68
2022/05/03 13:54:02;;;;;;;;;;;19.20;63.90;;;;;;5089138;28;19924;-67
2022/05/03 13:56:27;;;;;;;;;;;17.90;65.30;;;;;;5102616;28;20003;-68
2022/05/03 13:58:53;;;;;;;;;;;17.40;65.90;;;;;;5090622;28;19928;-69
2022/05/03 14:01:19;;;;;;;;;;;16.30;67.30;;;;;;5091153;28;19959;-67
2022/05/03 14:03:45;;;;;;;;;;;15.60;70.80;;;;;;5091042;28;19973;-67
2022/05/03 14:06:10;;;;;;;;;;;15.40;74.70;;;;;;5086618;28;19935;-67
2022/05/03 14:08:36;;;;;;;;;;;15.70;73.20;;;;;;5084637;28;19927;-68
2022/05/03 14:11:02;;;;;;;;;;;16.40;71.10;;;;;;5089398;28;19934;-69
2022/05/03 14:13:28;;;;;;;;;;;16.60;71.80;;;;;;5085526;28;20059;-67
2022/05/03 14:15:54;;;;;;;;;;;16.80;71.30;;;;;;5092352;28;19982;-68
2022/05/03 14:18:20;;;;;;;;;;;16.40;72.10;;;;;;5077999;28;20372;-66
2022/05/03 14:20:46;;;;;;;;;;;15.60;72.00;;;;;;5074274;28;19928;-68
2022/05/03 14:23:12;;;;;;;;;;;16.00;73.20;;;;;;5087429;28;19928;-68
2022/05/03 14:25:37;;;;;;;;;;;15.40;74.80;;;;;;5090963;28;19940;-68
2022/05/03 14:28:03;;;;;;;;;;;14.80;77.10;;;;;;5082794;28;19954;-67
2022/05/03 14:30:28;;;;;;;;;;;15.10;77.20;;;;;;5086594;28;19976;-69
2022/05/03 14:32:54;;;;;;;;;;;15.20;75.50;;;;;;5082409;28;20011;-68
2022/05/03 14:35:19;;;;;;;;;;;15.40;75.60;;;;;;5093135;28;20018;-67
2022/05/03 14:37:45;;;;;;;;;;;15.40;75.50;;;;;;5088724;28;19971;-67
2022/05/03 14:40:14;;;;;;;;;;;15.20;74.90;;;;;;5087630;28;20011;-67
2022/05/03 14:42:40;;;;;;;;;;;14.70;76.60;;;;;;5081400;28;20065;-69
2022/05/03 14:45:06;;;;;;;;;;;14.60;78.00;;;;;;5086960;28;20011;-66
2022/05/03 14:47:32;;;;;;;;;;;14.60;79.00;;;;;;5085812;28;19936;-68
2022/05/03 14:49:58;;;;;;;;;;;14.60;77.90;;;;;;5080341;28;19939;-67
2022/05/03 14:52:23;;;;;;;;;;;14.50;78.50;;;;;;5084761;28;19932;-67
2022/05/03 14:54:49;;;;;;;;;;;14.50;77.80;;;;;;5086019;28;19928;-66
2022/05/03 15:05:21;;;;;;;;;;;14.30;80.10;;;;;;5090208;28;19950;-68
2022/05/03 15:07:50;;;;;;;;;;;14.10;80.00;;;;;;5090005;28;19929;-67
2022/05/03 15:10:16;;;;;;;;;;;14.10;79.50;;;;;;5086595;28;20310;-68
2022/05/03 15:12:42;;;;;;;;;;;13.90;80.70;;;;;;5073236;28;19929;-69
2022/05/03 15:15:08;;;;;;;;;;;13.70;82.30;;;;;;5088699;28;20364;-67
2022/05/03 15:17:33;;;;;;;;;;;13.90;81.50;;;;;;5090823;28;19938;-68
2022/05/03 15:19:59;;;;;;;;;;;14.00;82.40;;;;;;5090015;28;20007;-68
2022/05/03 15:24:35;;;;;;;;;;;13.90;81.80;;;;;;5087379;28;19932;-66